createdAt,value
2019-02-03T00:01:06.399Z,3.40
2019-02-03T00:03:34.844Z,3.30
2019-02-03T00:06:04.083Z,3.20
2019-02-03T00:08:32.524Z,3.20
2019-02-03T00:11:01.029Z,3.00
2019-02-03T00:13:31.224Z,2.90
2019-02-03T00:15:59.919Z,2.80
2019-02-03T00:18:28.633Z,2.80
2019-02-03T00:20:57.128Z,2.70
2019-02-03T00:23:25.900Z,2.80
2019-02-03T00:25:54.322Z,2.80
2019-02-03T00:28:23.216Z,3.00
2019-02-03T00:30:52.056Z,3.00
2019-02-03T00:33:20.770Z,3.00
2019-02-03T00:35:49.287Z,3.00
2019-02-03T00:38:21.478Z,3.00
2019-02-03T00:40:48.335Z,3.00
2019-02-03T00:43:16.727Z,2.90
2019-02-03T00:45:45.513Z,2.80
2019-02-03T00:48:13.945Z,2.80
2019-02-03T00:50:42.780Z,2.90
2019-02-03T00:53:11.569Z,3.00
2019-02-03T00:55:40.392Z,2.90
2019-02-03T00:58:09.245Z,2.80
2019-02-03T01:00:37.691Z,2.90
2019-02-03T01:03:06.131Z,2.90
2019-02-03T01:05:34.806Z,2.90
2019-02-03T01:08:03.623Z,3.00
2019-02-03T01:10:32.582Z,2.90
2019-02-03T01:13:01.100Z,2.90
2019-02-03T01:15:32.333Z,3.00
2019-02-03T01:18:00.018Z,3.00
2019-02-03T01:20:28.624Z,3.10
2019-02-03T01:22:57.376Z,3.10
2019-02-03T01:25:26.128Z,3.00
2019-02-03T01:27:54.541Z,3.00
2019-02-03T01:30:24.025Z,3.10
2019-02-03T01:32:52.818Z,3.20
2019-02-03T01:35:21.502Z,3.20
2019-02-03T01:37:50.799Z,3.30
2019-02-03T01:40:20.048Z,3.30
2019-02-03T01:42:49.080Z,3.30
2019-02-03T01:45:19.645Z,3.40
2019-02-03T01:47:48.507Z,3.40
2019-02-03T01:50:17.292Z,3.50
2019-02-03T01:52:45.954Z,3.60
2019-02-03T01:55:23.452Z,3.60
2019-02-03T01:57:51.902Z,3.60
2019-02-03T02:00:25.892Z,3.60
2019-02-03T02:02:54.690Z,3.60
2019-02-03T02:05:23.537Z,3.60
2019-02-03T02:07:52.283Z,3.60
2019-02-03T02:10:25.900Z,3.60
2019-02-03T02:12:54.421Z,3.60
2019-02-03T02:15:23.014Z,3.60
2019-02-03T02:17:51.976Z,3.60
2019-02-03T02:20:23.255Z,3.40
2019-02-03T02:22:51.927Z,3.20
2019-02-03T02:25:20.776Z,3.10
2019-02-03T02:27:49.301Z,2.70
2019-02-03T02:30:20.682Z,2.70
2019-02-03T02:32:49.456Z,2.50
2019-02-03T02:35:17.964Z,2.30
2019-02-03T02:37:46.716Z,2.10
2019-02-03T02:40:18.068Z,2.20
2019-02-03T02:42:46.475Z,2.10
2019-02-03T02:45:16.144Z,2.10
2019-02-03T02:47:44.945Z,2.00
2019-02-03T02:50:22.622Z,2.00
2019-02-03T02:52:51.210Z,1.90
2019-02-03T02:55:19.794Z,2.00
2019-02-03T02:57:49.110Z,2.00
2019-02-03T03:00:19.828Z,2.00
2019-02-03T03:02:48.256Z,2.00
2019-02-03T03:05:17.101Z,1.90
2019-02-03T03:07:45.805Z,1.90
2019-02-03T03:10:17.170Z,1.90
2019-02-03T03:12:46.231Z,1.90
2019-02-03T03:15:17.358Z,1.90
2019-02-03T03:17:46.678Z,2.00
2019-02-03T03:20:17.841Z,2.00
2019-02-03T03:22:46.408Z,2.00
2019-02-03T03:25:17.650Z,2.10
2019-02-03T03:27:46.433Z,2.00
2019-02-03T03:30:25.972Z,2.00
2019-02-03T03:32:54.543Z,1.90
2019-02-03T03:35:23.338Z,1.90
2019-02-03T03:37:52.037Z,2.00
2019-02-03T03:40:23.338Z,1.90
2019-02-03T03:42:52.187Z,2.00
2019-02-03T03:45:21.016Z,2.00
2019-02-03T03:47:49.857Z,2.00
2019-02-03T03:50:19.042Z,2.00
2019-02-03T03:52:47.735Z,2.00
2019-02-03T03:55:16.724Z,2.10
2019-02-03T03:57:45.379Z,2.00
2019-02-03T04:00:21.719Z,2.10
2019-02-03T04:02:50.982Z,2.00
2019-02-03T04:05:19.507Z,2.00
2019-02-03T04:07:47.995Z,1.90
2019-02-03T04:10:23.905Z,1.90
2019-02-03T04:12:52.385Z,1.80
2019-02-03T04:15:21.837Z,1.70
2019-02-03T04:17:50.684Z,1.70
2019-02-03T04:20:21.872Z,1.70
2019-02-03T04:22:50.742Z,1.60
2019-02-03T04:25:19.158Z,1.60
2019-02-03T04:27:47.990Z,1.60
2019-02-03T04:30:19.547Z,1.60
2019-02-03T04:32:48.056Z,1.70
2019-02-03T04:35:16.808Z,1.60
2019-02-03T04:37:45.239Z,1.60
2019-02-03T04:40:16.137Z,1.60
2019-02-03T04:42:44.929Z,1.70
2019-02-03T04:45:15.581Z,1.70
2019-02-03T04:47:44.666Z,1.70
2019-02-03T04:50:15.713Z,1.70
2019-02-03T04:52:44.229Z,1.60
2019-02-03T04:55:15.969Z,1.60
2019-02-03T04:57:44.404Z,1.60
2019-02-03T05:00:16.137Z,1.70
2019-02-03T05:02:44.575Z,1.70
2019-02-03T05:05:13.065Z,1.70
2019-02-03T05:07:41.599Z,1.80
2019-02-03T05:10:12.752Z,1.90
2019-02-03T05:12:41.244Z,2.00
2019-02-03T05:15:15.058Z,2.00
2019-02-03T05:17:43.567Z,2.10
2019-02-03T05:20:14.751Z,2.10
2019-02-03T05:22:43.538Z,2.20
2019-02-03T05:25:13.751Z,2.30
2019-02-03T05:27:42.567Z,2.40
2019-02-03T05:30:17.100Z,2.30
2019-02-03T05:32:45.595Z,2.40
2019-02-03T05:35:14.349Z,2.30
2019-02-03T05:37:43.167Z,2.30
2019-02-03T05:40:14.197Z,2.20
2019-02-03T05:42:43.092Z,2.30
2019-02-03T05:45:14.845Z,2.30
2019-02-03T05:47:43.355Z,2.30
2019-02-03T05:50:14.655Z,2.20
2019-02-03T05:52:43.761Z,2.30
2019-02-03T05:55:12.821Z,2.30
2019-02-03T05:57:41.260Z,2.40
2019-02-03T06:00:15.759Z,2.40
2019-02-03T06:02:44.853Z,2.50
2019-02-03T06:05:13.286Z,2.50
2019-02-03T06:07:41.740Z,2.40
2019-02-03T06:10:15.824Z,2.40
2019-02-03T06:12:44.255Z,2.40
2019-02-03T06:15:13.543Z,2.40
2019-02-03T06:17:42.298Z,2.40
2019-02-03T06:20:16.310Z,2.50
2019-02-03T06:22:45.387Z,2.50
2019-02-03T06:25:14.761Z,2.50
2019-02-03T06:27:43.488Z,2.50
2019-02-03T06:30:23.862Z,2.30
2019-02-03T06:32:52.376Z,2.30
2019-02-03T06:35:20.880Z,2.20
2019-02-03T06:37:49.704Z,2.00
2019-02-03T06:40:18.489Z,2.10
2019-02-03T06:42:46.939Z,2.10
2019-02-03T06:45:17.071Z,2.00
2019-02-03T06:47:45.512Z,2.00
2019-02-03T06:50:13.933Z,2.00
2019-02-03T06:52:42.353Z,1.90
2019-02-03T06:55:11.353Z,1.80
2019-02-03T06:57:40.128Z,1.80
2019-02-03T07:00:11.992Z,1.80
2019-02-03T07:02:40.764Z,1.80
2019-02-03T07:05:09.536Z,1.90
2019-02-03T07:07:37.979Z,1.90
2019-02-03T07:10:09.342Z,2.00
2019-02-03T07:12:37.835Z,1.90
2019-02-03T07:15:09.186Z,1.90
2019-02-03T07:17:37.611Z,1.90
2019-02-03T07:20:19.080Z,1.90
2019-02-03T07:22:47.484Z,1.90
2019-02-03T07:25:15.992Z,2.00
2019-02-03T07:27:44.430Z,1.90
2019-02-03T07:30:21.774Z,1.90
2019-02-03T07:32:50.262Z,1.90
2019-02-03T07:35:19.087Z,1.90
2019-02-03T07:37:47.773Z,2.00
2019-02-03T07:40:18.536Z,2.00
2019-02-03T07:42:47.126Z,2.00
2019-02-03T07:45:15.650Z,1.90
2019-02-03T07:47:44.880Z,1.90
2019-02-03T07:50:15.431Z,1.90
2019-02-03T07:52:44.009Z,1.90
2019-02-03T07:55:13.948Z,1.90
2019-02-03T07:57:42.448Z,1.90
2019-02-03T08:00:15.816Z,1.90
2019-02-03T08:02:44.351Z,1.80
2019-02-03T08:05:13.046Z,1.70
2019-02-03T08:07:41.617Z,1.70
2019-02-03T08:10:24.384Z,1.70
2019-02-03T08:12:45.463Z,1.70
2019-02-03T08:15:16.879Z,1.70
2019-02-03T08:17:45.721Z,1.60
2019-02-03T08:20:28.888Z,1.70
2019-02-03T08:22:57.465Z,1.80
2019-02-03T08:25:26.282Z,1.70
2019-02-03T08:27:54.805Z,1.60
2019-02-03T08:30:28.591Z,1.70
2019-02-03T08:32:57.817Z,1.80
2019-02-03T08:35:26.247Z,1.80
2019-02-03T08:37:54.745Z,1.80
2019-02-03T08:40:36.146Z,1.90
2019-02-03T08:42:55.958Z,2.00
2019-02-03T08:45:25.284Z,2.10
2019-02-03T08:47:54.114Z,2.10
2019-02-03T08:50:24.026Z,2.10
2019-02-03T08:52:53.107Z,2.20
2019-02-03T08:55:21.615Z,2.20
2019-02-03T08:57:50.479Z,2.20
2019-02-03T09:00:21.520Z,2.30
2019-02-03T09:02:50.646Z,2.20
2019-02-03T09:05:20.062Z,2.20
2019-02-03T09:07:48.874Z,2.30
2019-02-03T09:10:25.594Z,2.40
2019-02-03T09:12:54.104Z,2.40
2019-02-03T09:15:26.833Z,2.60
2019-02-03T09:17:55.776Z,2.70
2019-02-03T09:20:27.393Z,2.70
2019-02-03T09:22:56.168Z,2.80
2019-02-03T09:25:24.792Z,2.80
2019-02-03T09:27:53.489Z,2.90
2019-02-03T09:30:30.614Z,2.90
2019-02-03T09:32:59.331Z,2.90
2019-02-03T09:35:27.950Z,3.00
2019-02-03T09:37:56.509Z,3.10
2019-02-03T09:40:35.049Z,3.20
2019-02-03T09:43:03.941Z,3.20
2019-02-03T09:45:33.125Z,3.20
2019-02-03T09:48:01.909Z,3.20
2019-02-03T09:50:33.345Z,3.30
2019-02-03T09:53:02.742Z,3.20
2019-02-03T09:55:31.533Z,3.20
2019-02-03T09:58:01.047Z,3.20
2019-02-03T10:00:35.194Z,3.30
2019-02-03T10:03:05.484Z,3.30
2019-02-03T10:05:36.995Z,3.40
2019-02-03T10:08:05.844Z,3.50
2019-02-03T10:10:36.764Z,3.50
2019-02-03T10:13:05.831Z,3.50
2019-02-03T10:15:34.698Z,3.40
2019-02-03T10:18:04.070Z,3.60
2019-02-03T10:20:32.959Z,3.70
2019-02-03T10:23:02.307Z,3.80
2019-02-03T10:25:31.903Z,3.90
2019-02-03T10:28:00.488Z,4.00
2019-02-03T10:30:29.487Z,4.10
2019-02-03T10:33:10.713Z,4.20
2019-02-03T10:35:39.698Z,4.20
2019-02-03T10:38:08.510Z,4.30
2019-02-03T10:40:39.696Z,4.40
2019-02-03T10:43:08.740Z,4.40
2019-02-03T10:45:37.559Z,4.40
2019-02-03T10:48:07.192Z,4.50
2019-02-03T10:50:38.532Z,4.40
2019-02-03T10:53:09.732Z,4.50
2019-02-03T10:55:38.483Z,4.70
2019-02-03T10:58:07.293Z,4.90
2019-02-03T11:00:39.289Z,4.90
2019-02-03T11:03:07.946Z,5.30
2019-02-03T11:05:40.072Z,5.60
2019-02-03T11:08:10.331Z,5.90
2019-02-03T11:10:38.889Z,6.30
2019-02-03T11:13:08.013Z,6.70
2019-02-03T11:15:36.690Z,6.70
2019-02-03T11:18:06.580Z,6.90
2019-02-03T11:20:36.056Z,7.10
2019-02-03T11:23:13.773Z,7.40
2019-02-03T11:25:43.032Z,7.60
2019-02-03T11:28:12.135Z,7.40
2019-02-03T11:30:40.718Z,7.60
2019-02-03T11:33:11.149Z,7.90
2019-02-03T11:35:39.808Z,8.30
2019-02-03T11:38:08.962Z,9.00
2019-02-03T11:40:59.211Z,9.30
2019-02-03T11:43:28.083Z,9.10
2019-02-03T11:45:57.022Z,8.70
2019-02-03T11:48:25.650Z,8.60
2019-02-03T11:50:58.432Z,8.60
2019-02-03T11:53:32.557Z,8.90
2019-02-03T11:56:04.051Z,8.90
2019-02-03T11:58:35.497Z,8.70
2019-02-03T12:01:06.192Z,8.60
2019-02-03T12:03:34.665Z,8.40
2019-02-03T12:06:03.553Z,8.30
2019-02-03T12:08:32.147Z,8.20
2019-02-03T12:11:01.164Z,8.00
2019-02-03T12:13:29.801Z,7.80
2019-02-03T12:15:58.905Z,7.60
2019-02-03T12:18:27.409Z,7.30
2019-02-03T12:20:55.895Z,7.20
2019-02-03T12:23:24.514Z,6.90
2019-02-03T12:25:53.077Z,7.00
2019-02-03T12:28:21.593Z,7.00
2019-02-03T12:30:50.349Z,7.10
2019-02-03T12:33:18.802Z,7.20
2019-02-03T12:35:47.360Z,7.30
2019-02-03T12:38:16.163Z,7.40
2019-02-03T12:40:44.667Z,7.50
2019-02-03T12:43:13.234Z,7.70
2019-02-03T12:45:42.021Z,8.10
2019-02-03T12:48:10.660Z,8.30
2019-02-03T12:50:39.265Z,8.60
2019-02-03T12:53:08.297Z,9.00
2019-02-03T12:55:37.601Z,9.10
2019-02-03T12:58:06.582Z,9.00
2019-02-03T13:00:36.907Z,9.00
2019-02-03T13:03:07.595Z,8.90
2019-02-03T13:05:36.197Z,8.70
2019-02-03T13:08:06.147Z,8.30
2019-02-03T13:10:37.699Z,8.40
2019-02-03T13:13:07.752Z,8.20
2019-02-03T13:15:39.227Z,7.90
2019-02-03T13:18:08.378Z,7.80
2019-02-03T13:20:37.631Z,7.70
2019-02-03T13:23:06.500Z,7.60
2019-02-03T13:25:35.311Z,7.50
2019-02-03T13:28:04.602Z,7.40
2019-02-03T13:30:47.800Z,7.30
2019-02-03T13:33:16.749Z,7.30
2019-02-03T13:35:45.502Z,7.10
2019-02-03T13:38:14.005Z,7.00
2019-02-03T13:40:42.497Z,6.90
2019-02-03T13:43:11.166Z,6.90
2019-02-03T13:45:40.051Z,7.00
2019-02-03T13:48:08.604Z,6.80
2019-02-03T13:50:37.533Z,6.90
2019-02-03T13:53:06.158Z,7.00
2019-02-03T13:55:34.578Z,7.00
2019-02-03T13:58:03.367Z,7.20
2019-02-03T14:00:37.801Z,7.30
2019-02-03T14:03:06.870Z,7.30
2019-02-03T14:05:35.282Z,7.30
2019-02-03T14:08:05.215Z,7.40
2019-02-03T14:10:35.472Z,7.30
2019-02-03T14:13:05.566Z,7.40
2019-02-03T14:15:34.447Z,7.40
2019-02-03T14:18:03.017Z,7.40
2019-02-03T14:20:31.983Z,7.60
2019-02-03T14:23:00.800Z,7.70
2019-02-03T14:25:30.201Z,7.90
2019-02-03T14:27:59.124Z,7.90
2019-02-03T14:30:40.020Z,8.00
2019-02-03T14:33:00.834Z,8.00
2019-02-03T14:35:29.394Z,8.00
2019-02-03T14:37:58.381Z,7.80
2019-02-03T14:40:27.080Z,7.80
2019-02-03T14:43:01.739Z,7.70
2019-02-03T14:45:29.139Z,7.50
2019-02-03T14:47:57.653Z,7.60
2019-02-03T14:50:26.916Z,7.60
2019-02-03T14:52:58.142Z,7.60
2019-02-03T14:55:29.087Z,7.70
2019-02-03T14:57:59.831Z,7.70
2019-02-03T15:00:33.330Z,7.50
2019-02-03T15:03:03.184Z,7.90
2019-02-03T15:05:31.943Z,8.80
2019-02-03T15:08:00.456Z,10.00
2019-02-03T15:10:30.393Z,10.70
2019-02-03T15:12:59.484Z,11.10
2019-02-03T15:15:29.576Z,11.60
2019-02-03T15:17:58.428Z,11.60
2019-02-03T15:20:28.059Z,11.50
2019-02-03T15:22:56.589Z,11.40
2019-02-03T15:25:24.979Z,11.20
2019-02-03T15:27:53.736Z,10.50
2019-02-03T15:30:34.251Z,9.80
2019-02-03T15:33:02.735Z,9.40
2019-02-03T15:35:31.516Z,9.30
2019-02-03T15:38:00.215Z,9.20
2019-02-03T15:40:28.926Z,9.10
2019-02-03T15:42:57.731Z,8.80
2019-02-03T15:45:27.105Z,8.50
2019-02-03T15:47:55.779Z,8.20
2019-02-03T15:50:29.407Z,8.00
2019-02-03T15:52:58.512Z,7.70
2019-02-03T15:55:32.423Z,7.40
2019-02-03T15:58:00.956Z,7.40
2019-02-03T16:00:34.820Z,7.30
2019-02-03T16:03:03.361Z,7.30
2019-02-03T16:05:31.764Z,7.20
2019-02-03T16:08:00.189Z,7.20
2019-02-03T16:10:28.951Z,7.10
2019-02-03T16:12:57.389Z,7.10
2019-02-03T16:15:25.963Z,7.10
2019-02-03T16:17:54.761Z,7.00
2019-02-03T16:20:28.959Z,7.00
2019-02-03T16:22:59.219Z,7.00
2019-02-03T16:25:27.794Z,7.00
2019-02-03T16:27:56.537Z,7.00
2019-02-03T16:30:33.678Z,7.00
2019-02-03T16:33:02.446Z,7.00
2019-02-03T16:35:30.885Z,6.60
2019-02-03T16:37:59.382Z,6.30
2019-02-03T16:40:29.931Z,6.20
2019-02-03T16:42:58.758Z,6.10
2019-02-03T16:45:27.458Z,6.10
2019-02-03T16:47:55.943Z,6.10
2019-02-03T16:50:31.994Z,6.00
2019-02-03T16:53:02.284Z,6.10
2019-02-03T16:55:31.249Z,6.00
2019-02-03T16:58:00.155Z,6.00
2019-02-03T17:00:32.454Z,5.90
2019-02-03T17:03:01.567Z,5.90
2019-02-03T17:05:31.366Z,5.90
2019-02-03T17:08:01.913Z,5.90
2019-02-03T17:10:30.570Z,5.90
2019-02-03T17:12:59.117Z,5.90
2019-02-03T17:15:29.849Z,5.90
2019-02-03T17:17:58.681Z,5.90
2019-02-03T17:20:27.288Z,5.90
2019-02-03T17:22:55.933Z,5.90
2019-02-03T17:25:30.330Z,5.90
2019-02-03T17:27:59.241Z,5.90
2019-02-03T17:30:28.351Z,5.90
2019-02-03T17:32:56.755Z,5.80
2019-02-03T17:35:25.544Z,5.80
2019-02-03T17:37:53.947Z,5.60
2019-02-03T17:40:22.740Z,5.50
2019-02-03T17:42:51.139Z,5.50
2019-02-03T17:45:25.405Z,5.40
2019-02-03T17:47:53.920Z,5.30
2019-02-03T17:50:30.180Z,5.30
2019-02-03T17:52:58.767Z,5.20
2019-02-03T17:55:27.265Z,5.10
2019-02-03T17:57:56.178Z,5.00
2019-02-03T18:00:42.960Z,4.80
2019-02-03T18:03:12.000Z,4.70
2019-02-03T18:05:40.737Z,4.60
2019-02-03T18:08:10.476Z,4.40
2019-02-03T18:10:38.959Z,4.40
2019-02-03T18:13:07.822Z,4.40
2019-02-03T18:15:36.229Z,4.40
2019-02-03T18:18:06.631Z,4.40
2019-02-03T18:20:35.462Z,4.30
2019-02-03T18:23:04.586Z,4.30
2019-02-03T18:25:33.276Z,4.30
2019-02-03T18:28:01.714Z,4.30
2019-02-03T18:30:35.174Z,4.10
2019-02-03T18:33:04.085Z,4.10
2019-02-03T18:35:32.531Z,4.00
2019-02-03T18:38:03.955Z,4.00
2019-02-03T18:40:32.390Z,4.00
2019-02-03T18:43:02.119Z,4.00
2019-02-03T18:45:30.801Z,4.00
2019-02-03T18:47:59.213Z,3.90
2019-02-03T18:50:27.666Z,3.90
2019-02-03T18:52:56.101Z,3.90
2019-02-03T18:55:33.149Z,3.80
2019-02-03T18:58:01.577Z,3.80
2019-02-03T19:00:33.076Z,3.80
2019-02-03T19:03:01.586Z,3.70
2019-02-03T19:05:31.937Z,3.70
2019-02-03T19:08:00.341Z,3.70
2019-02-03T19:10:29.061Z,3.60
2019-02-03T19:12:57.844Z,3.60
2019-02-03T19:15:29.183Z,3.60
2019-02-03T19:18:07.961Z,3.50
2019-02-03T19:20:38.612Z,3.50
2019-02-03T19:23:08.708Z,3.40
2019-02-03T19:29:06.396Z,3.30
2019-02-03T19:31:35.592Z,3.30
2019-02-03T19:34:04.574Z,3.20
2019-02-03T19:36:33.067Z,3.20
2019-02-03T19:39:01.493Z,3.20
2019-02-03T19:41:29.932Z,3.20
2019-02-03T19:43:58.434Z,3.20
2019-02-03T19:46:26.863Z,3.10
2019-02-03T19:48:55.356Z,3.10
2019-02-03T19:51:23.761Z,3.10
2019-02-03T19:53:52.453Z,3.00
2019-02-03T19:56:20.863Z,3.00
2019-02-03T19:58:49.321Z,2.90
2019-02-03T20:01:17.748Z,2.90
2019-02-03T20:03:46.169Z,2.90
2019-02-03T20:06:14.576Z,2.90
2019-02-03T20:08:44.586Z,2.80
2019-02-03T20:11:13.213Z,2.80
2019-02-03T20:13:41.616Z,2.80
2019-02-03T20:16:10.042Z,2.70
2019-02-03T20:18:38.599Z,2.70
2019-02-03T20:21:07.340Z,2.80
2019-02-03T20:23:35.845Z,2.70
2019-02-03T20:26:04.264Z,2.70
2019-02-03T20:28:33.093Z,2.70
2019-02-03T20:31:01.539Z,2.60
2019-02-03T20:33:30.393Z,2.60
2019-02-03T20:35:59.113Z,2.60
2019-02-03T20:38:27.519Z,2.60
2019-02-03T20:40:55.953Z,2.50
2019-02-03T20:43:24.350Z,2.50
2019-02-03T20:45:52.788Z,2.50
2019-02-03T20:48:21.593Z,2.40
2019-02-03T20:50:50.447Z,2.40
2019-02-03T20:53:19.338Z,2.30
2019-02-03T20:55:47.753Z,2.30
2019-02-03T20:58:16.589Z,2.30
2019-02-03T21:00:45.050Z,2.30
2019-02-03T21:03:13.861Z,2.30
2019-02-03T21:05:42.605Z,2.30
2019-02-03T21:08:11.421Z,2.30
2019-02-03T21:10:39.828Z,2.30
2019-02-03T21:13:11.838Z,2.30
2019-02-03T21:15:38.383Z,2.30
2019-02-03T21:18:08.055Z,2.30
2019-02-03T21:20:36.680Z,2.30
2019-02-03T21:23:05.617Z,2.30
2019-02-03T21:25:34.024Z,2.30
2019-02-03T21:28:02.860Z,2.30
2019-02-03T21:30:36.491Z,2.30
2019-02-03T21:33:04.997Z,2.30
2019-02-03T21:35:33.495Z,2.30
2019-02-03T21:38:01.963Z,2.30
2019-02-03T21:40:31.618Z,2.30
2019-02-03T21:43:00.462Z,2.30
2019-02-03T21:45:29.056Z,2.30
2019-02-03T21:47:58.065Z,2.20
2019-02-03T21:50:28.707Z,2.20
2019-02-03T21:52:57.461Z,2.20
2019-02-03T21:55:26.983Z,2.20
2019-02-03T21:57:55.587Z,2.10
2019-02-03T22:00:34.123Z,2.20
2019-02-03T22:03:02.855Z,2.10
2019-02-03T22:05:31.337Z,2.10
2019-02-03T22:08:00.048Z,2.00
2019-02-03T22:10:33.775Z,2.00
2019-02-03T22:13:03.333Z,1.90
2019-02-03T22:15:32.338Z,1.90
2019-02-03T22:18:01.153Z,1.80
2019-02-03T22:20:29.739Z,1.80
2019-02-03T22:22:58.198Z,1.80
2019-02-03T22:25:26.638Z,1.80
2019-02-03T22:27:55.129Z,1.70
2019-02-03T22:30:31.985Z,1.70
2019-02-03T22:33:00.884Z,1.70
2019-02-03T22:35:29.404Z,1.70
2019-02-03T22:37:57.841Z,1.60
2019-02-03T22:40:26.923Z,1.60
2019-02-03T22:42:55.651Z,1.50
2019-02-03T22:45:25.911Z,1.60
2019-02-03T22:47:54.810Z,1.50
2019-02-03T22:50:26.287Z,1.60
2019-02-03T22:52:54.702Z,1.50
2019-02-03T22:55:23.379Z,1.50
2019-02-03T22:57:51.863Z,1.60
2019-02-03T23:00:52.026Z,1.60
2019-02-03T23:03:23.791Z,1.50
2019-02-03T23:05:53.267Z,1.40
2019-02-03T23:08:22.074Z,1.40
2019-02-03T23:10:51.008Z,1.40
2019-02-03T23:13:19.409Z,1.40
2019-02-03T23:15:48.770Z,1.30
2019-02-03T23:18:17.191Z,1.40
2019-02-03T23:20:45.926Z,1.40
2019-02-03T23:23:14.366Z,1.40
2019-02-03T23:25:42.785Z,1.50
2019-02-03T23:28:11.201Z,1.40
2019-02-03T23:30:40.098Z,1.50
2019-02-03T23:33:08.772Z,1.50
2019-02-03T23:35:37.178Z,1.40
2019-02-03T23:38:05.717Z,1.40
2019-02-03T23:40:34.226Z,1.40
2019-02-03T23:43:03.110Z,1.30
2019-02-03T23:45:32.080Z,1.30
2019-02-03T23:48:00.529Z,1.30
2019-02-03T23:50:28.943Z,1.20
2019-02-03T23:52:57.671Z,1.10
2019-02-03T23:55:26.158Z,1.20
2019-02-03T23:57:54.582Z,1.20
